Time;durP1;ratioP1;P1;durP2;ratioP2;P2;SDS_P1;SDS_P2;PMS_P1;PMS_P2;Temp;Humidity;BMP_temperature;BMP_pressure;BME280_temperature;BME280_humidity;BME280_pressure;Samples;Min_cycle;Max_cycle;Signal;HPM_P1;HPM_P2
2023/01/28 00:01:58;;;;;;;5.28;3.65;;;;;;;19.09;38.87;101077.16;5048306;28;20492;-50
2023/01/28 00:04:26;;;;;;;4.28;3.30;;;;;;;19.10;38.96;101074.34;5033904;28;20048;-51
2023/01/28 00:06:53;;;;;;;4.80;2.92;;;;;;;19.10;37.93;101077.03;5051563;28;20041;-50
2023/01/28 00:09:21;;;;;;;5.25;3.58;;;;;;;19.12;38.24;101074.22;5050360;28;20049;-50
2023/01/28 00:11:48;;;;;;;3.97;3.00;;;;;;;19.12;38.07;101069.72;5033116;28;20045;-48
2023/01/28 00:14:16;;;;;;;4.78;3.45;;;;;;;19.14;37.71;101074.94;5034635;28;20053;-46
2023/01/28 00:16:43;;;;;;;8.45;3.47;;;;;;;19.14;37.95;101075.81;5034911;28;20060;-48
2023/01/28 00:19:10;;;;;;;9.13;3.78;;;;;;;19.14;37.92;101072.25;5034462;28;20046;-48
2023/01/28 00:21:38;;;;;;;5.57;3.30;;;;;;;19.14;37.76;101073.13;5038195;28;20052;-48
2023/01/28 00:24:05;;;;;;;4.60;3.30;;;;;;;19.15;37.74;101074.81;5054524;28;20045;-49
2023/01/28 00:26:33;;;;;;;4.70;3.53;;;;;;;19.15;37.53;101072.13;5054176;28;20049;-49
2023/01/28 00:29:00;;;;;;;7.00;3.53;;;;;;;19.16;37.86;101072.97;5054053;28;20048;-46
2023/01/28 00:31:28;;;;;;;7.38;3.92;;;;;;;19.16;37.55;101079.22;5054001;28;20045;-47
2023/01/28 00:33:56;;;;;;;6.95;3.80;;;;;;;19.16;38.48;101081.91;5052685;28;20380;-49
2023/01/28 00:36:24;;;;;;;6.05;3.45;;;;;;;19.17;38.33;101085.44;5054069;28;20411;-47
2023/01/28 00:38:57;;;;;;;6.50;3.70;;;;;;;19.17;37.61;101082.75;5054078;28;20080;-49
2023/01/28 00:41:28;;;;;;;7.05;3.72;;;;;;;19.16;37.50;101079.22;5054195;28;20045;-48
2023/01/28 00:43:58;;;;;;;6.82;4.30;;;;;;;19.16;37.58;101081.91;5054647;28;20479;-49
2023/01/28 00:46:26;;;;;;;7.57;3.90;;;;;;;19.16;37.38;101086.41;5054246;28;20053;-49
2023/01/28 00:48:53;;;;;;;6.72;3.45;;;;;;;19.16;37.41;101089.97;5054339;28;20067;-46
2023/01/28 00:51:21;;;;;;;6.00;3.70;;;;;;;19.16;37.38;101097.13;5053094;28;20053;-46
2023/01/28 00:53:49;;;;;;;6.05;3.80;;;;;;;19.15;37.88;101085.56;5052424;28;20060;-47
2023/01/28 00:56:18;;;;;;;5.90;4.03;;;;;;;19.15;37.58;101093.59;5054003;28;20056;-47
2023/01/28 00:58:46;;;;;;;6.47;3.17;;;;;;;19.15;37.99;101085.56;5054242;28;20493;-46
2023/01/28 01:01:17;;;;;;;7.22;3.85;;;;;;;19.15;38.00;101092.75;5054121;28;20446;-48
2023/01/28 01:03:45;;;;;;;5.75;3.58;;;;;;;19.15;37.97;101103.50;5053078;28;20076;-46
2023/01/28 01:06:14;;;;;;;4.68;3.25;;;;;;;19.14;37.90;101099.09;5053902;28;20049;-46
2023/01/28 01:08:49;;;;;;;5.38;3.30;;;;;;;19.14;38.13;101104.47;5053860;28;20044;-48
2023/01/28 01:11:18;;;;;;;5.65;3.40;;;;;;;19.13;38.12;101100.94;5053538;28;20068;-49
2023/01/28 01:13:50;;;;;;;4.10;3.45;;;;;;;19.13;38.19;101103.63;5052425;28;20060;-48
2023/01/28 01:16:17;;;;;;;6.30;3.60;;;;;;;19.13;38.18;101108.13;5053489;28;20487;-50
2023/01/28 01:18:51;;;;;;;4.63;3.45;;;;;;;19.12;38.00;101112.66;5052759;28;20063;-49
2023/01/28 01:21:23;;;;;;;5.53;3.90;;;;;;;19.12;38.18;101112.66;5052252;28;20448;-49
2023/01/28 01:23:52;;;;;;;5.05;3.40;;;;;;;19.12;38.09;101122.50;5053318;28;20060;-49
2023/01/28 01:26:21;;;;;;;7.28;3.58;;;;;;;19.12;37.94;101125.19;5053582;28;20041;-52
2023/01/28 01:28:50;;;;;;;4.65;3.05;;;;;;;19.11;38.12;101118.97;5053520;28;20048;-48
2023/01/28 01:31:20;;;;;;;5.85;3.80;;;;;;;19.11;38.20;101137.75;5053476;28;20053;-47
2023/01/28 01:33:50;;;;;;;4.30;3.42;;;;;;;19.11;38.14;101135.09;5051961;28;20053;-49
2023/01/28 01:36:20;;;;;;;5.13;3.45;;;;;;;19.11;38.03;101143.13;5051701;28;20132;-47
2023/01/28 01:38:53;;;;;;;6.20;3.97;;;;;;;19.10;38.36;101130.69;5052115;28;20403;-49
2023/01/28 01:41:31;;;;;;;5.03;3.97;;;;;;;19.10;38.24;101136.06;5053105;28;20056;-48
2023/01/28 01:44:04;;;;;;;4.95;3.72;;;;;;;19.10;38.36;101144.13;5053358;28;20075;-50
2023/01/28 01:46:35;;;;;;;;;;;;;;;19.09;38.45;101153.16;5053812;28;20049;-52
2023/01/28 01:49:24;;;;;;;4.53;3.10;;;;;;;19.09;38.24;101137.06;5053706;28;19921;-48
2023/01/28 01:51:58;;;;;;;4.75;3.72;;;;;;;19.07;38.18;101138.13;5053356;28;20479;-47
2023/01/28 01:54:28;;;;;;;7.50;3.92;;;;;;;19.08;37.62;101139.84;5053320;28;20041;-47
2023/01/28 01:56:58;;;;;;;4.45;3.25;;;;;;;19.08;38.37;101132.66;5052979;28;20057;-48
2023/01/28 01:59:29;;;;;;;5.97;3.80;;;;;;;19.06;38.59;101136.44;5053457;28;20037;-50
2023/01/28 02:02:00;;;;;;;4.55;3.35;;;;;;;19.06;38.25;101136.44;5053177;28;20412;-50
2023/01/28 02:04:34;;;;;;;4.25;3.20;;;;;;;19.04;38.20;101133.88;5053237;28;20048;-51
2023/01/28 02:07:02;;;;;;;8.70;4.05;;;;;;;19.05;38.22;101146.31;5051823;28;20388;-52
2023/01/28 02:09:33;;;;;;;4.82;3.40;;;;;;;19.05;37.91;101140.97;5053182;28;20057;-49
2023/01/28 02:12:07;;;;;;;3.78;2.83;;;;;;;19.05;38.18;101146.31;5052993;28;20045;-51
2023/01/28 02:14:41;;;;;;;5.70;3.65;;;;;;;19.05;38.55;101153.53;5051208;28;20053;-49
2023/01/28 02:17:08;;;;;;;5.22;3.40;;;;;;;19.03;38.82;101143.75;5053358;28;20395;-50
2023/01/28 02:19:47;;;;;;;6.68;3.90;;;;;;;19.03;38.51;101165.22;5052835;28;20045;-49
2023/01/28 02:22:28;;;;;;;5.35;3.85;;;;;;;19.03;38.66;101153.63;5051919;28;20057;-49
2023/01/28 02:25:20;;;;;;;5.28;3.55;;;;;;;19.03;37.83;101148.25;5052996;28;20403;-47
2023/01/28 02:28:03;;;;;;;5.45;4.18;;;;;;;19.02;37.42;101150.09;5052051;28;20394;-47
2023/01/28 02:30:41;;;;;;;4.63;3.60;;;;;;;19.03;37.63;101150.94;5050902;28;20068;-50
2023/01/28 02:33:38;;;;;;;5.32;3.92;;;;;;;19.02;37.89;101152.78;5051424;28;20282;-50
2023/01/28 02:36:21;;;;;;;7.80;3.83;;;;;;;19.02;37.40;101155.47;5054471;28;20053;-49
2023/01/28 02:38:52;;;;;;;5.33;3.70;;;;;;;19.02;37.53;101159.97;5055443;28;20518;-47
2023/01/28 02:41:43;;;;;;;5.95;3.90;;;;;;;19.03;37.97;101164.34;5055352;28;20298;-47
2023/01/28 02:44:10;;;;;;;5.43;4.15;;;;;;;19.02;37.54;101165.34;5055604;28;20061;-48
2023/01/28 02:49:29;;;;;;;6.00;4.03;;;;;;;19.00;37.40;101162.78;5055192;28;20045;-49
2023/01/28 02:55:24;;;;;;;5.78;3.80;;;;;;;18.99;37.12;101166.44;5054962;28;20064;-49
2023/01/28 02:58:09;;;;;;;5.95;3.83;;;;;;;18.98;37.14;101169.25;5056171;28;20049;-49
2023/01/28 03:00:57;;;;;;;5.63;4.13;;;;;;;18.96;36.63;101177.44;5056270;28;20053;-51
2023/01/28 03:03:38;;;;;;;5.13;4.05;;;;;;;18.94;36.72;101170.47;5055443;28;20059;-51
2023/01/28 03:06:11;;;;;;;6.40;4.25;;;;;;;18.93;36.99;101168.75;5056175;28;20049;-49
2023/01/28 03:36:58;;;;;;;7.72;3.80;;;;;;;18.92;38.97;101158.97;5055535;28;20483;-47
2023/01/28 03:39:36;;;;;;;4.30;3.08;;;;;;;18.93;38.98;101155.34;5062413;28;20395;-47
2023/01/28 03:42:06;;;;;;;4.78;3.17;;;;;;;18.93;39.26;101153.50;5054055;28;20041;-48
2023/01/28 03:44:48;;;;;;;6.82;3.72;;;;;;;18.93;39.40;101158.03;5054306;28;20059;-46
2023/01/28 03:47:17;;;;;;;5.32;3.03;;;;;;;18.93;39.43;101158.88;5053912;28;20048;-48
2023/01/28 03:49:49;;;;;;;6.03;3.75;;;;;;;18.92;39.31;101154.50;5053531;28;20514;-46
2023/01/28 03:52:22;;;;;;;4.57;3.33;;;;;;;18.92;39.56;101154.50;5053228;28;20053;-47
2023/01/28 03:54:51;;;;;;;4.57;3.03;;;;;;;18.93;39.58;101152.66;5053829;28;20049;-48
2023/01/28 03:57:22;;;;;;;4.18;2.80;;;;;;;18.92;39.54;101159.84;5053755;28;20061;-46
2023/01/28 03:59:51;;;;;;;5.47;2.95;;;;;;;18.91;39.62;101158.13;5053448;28;20056;-48
2023/01/28 04:02:21;;;;;;;3.33;2.88;;;;;;;18.93;39.66;101161.56;5053465;28;20411;-47
2023/01/28 04:04:51;;;;;;;6.73;3.30;;;;;;;18.93;39.69;101164.25;5053244;28;20071;-47
2023/01/28 04:07:19;;;;;;;4.00;2.90;;;;;;;18.93;39.80;101158.03;5053302;28;20285;-48
2023/01/28 04:10:21;;;;;;;3.25;2.40;;;;;;;18.93;39.70;101163.41;5051307;28;20041;-47
2023/01/28 04:12:54;;;;;;;4.95;3.42;;;;;;;18.91;39.77;101155.44;5053366;28;20049;-47
2023/01/28 04:15:22;;;;;;;5.30;3.40;;;;;;;18.92;39.88;101158.97;5054005;28;20072;-47
2023/01/28 04:17:50;;;;;;;5.28;3.35;;;;;;;18.91;40.10;101165.31;5053483;28;20065;-48
2023/01/28 04:20:25;;;;;;;4.75;3.25;;;;;;;18.92;39.97;101164.34;5053744;28;20056;-50
2023/01/28 04:22:54;;;;;;;4.40;2.83;;;;;;;18.92;39.88;101167.03;5053277;28;20060;-51
2023/01/28 04:25:22;;;;;;;5.25;3.33;;;;;;;18.92;40.06;101169.72;5053450;28;20053;-52
2023/01/28 04:27:49;;;;;;;4.03;2.97;;;;;;;18.91;39.97;101171.53;5054526;28;20392;-52
2023/01/28 04:30:21;;;;;;;4.40;3.10;;;;;;;18.91;40.16;101170.69;5053380;28;20064;-48
2023/01/28 04:33:06;;;;;;;5.40;3.35;;;;;;;18.91;40.18;101162.66;5053203;28;20053;-52
2023/01/28 04:35:45;;;;;;;5.40;3.33;;;;;;;18.91;40.15;101174.22;5053728;28;20383;-47
2023/01/28 04:38:33;;;;;;;4.30;2.78;;;;;;;18.91;40.24;101176.06;5053439;28;20056;-48
2023/01/28 04:41:19;;;;;;;4.57;3.13;;;;;;;18.90;40.38;101174.34;5053097;28;20056;-51
2023/01/28 04:43:48;;;;;;;7.00;3.05;;;;;;;18.91;40.39;101178.75;5053019;28;20056;-50
2023/01/28 04:46:34;;;;;;;4.22;2.80;;;;;;;18.90;40.40;101179.72;5061288;28;20060;-50
2023/01/28 04:49:08;;;;;;;5.78;2.83;;;;;;;18.89;40.33;101186.06;5037293;28;20053;-49
2023/01/28 04:51:42;;;;;;;7.47;3.35;;;;;;;18.91;40.36;101184.09;5052721;28;20060;-49
2023/01/28 04:54:36;;;;;;;5.03;3.20;;;;;;;18.91;40.31;101195.69;5045826;28;20053;-50
2023/01/28 04:57:04;;;;;;;4.45;3.13;;;;;;;18.91;40.45;101198.38;5035558;28;20107;-49
2023/01/28 04:59:31;;;;;;;4.53;2.97;;;;;;;18.92;40.15;101197.41;5052764;28;20527;-48
2023/01/28 05:02:00;;;;;;;4.60;2.65;;;;;;;18.93;40.27;101206.31;5052599;28;20057;-48
2023/01/28 05:04:28;;;;;;;4.05;2.65;;;;;;;18.92;40.69;101207.28;5052229;28;20498;-50
2023/01/28 05:06:55;;;;;;;5.38;2.85;;;;;;;18.93;40.48;101209.00;5053908;28;20495;-48
2023/01/28 05:09:27;;;;;;;4.53;3.00;;;;;;;18.93;40.60;101214.38;5052762;28;20053;-47
2023/01/28 05:11:54;;;;;;;3.88;2.53;;;;;;;18.94;40.65;101226.81;5053780;28;20048;-48
2023/01/28 05:14:22;;;;;;;4.93;3.25;;;;;;;18.94;40.60;101218.75;5035859;28;20486;-48
2023/01/28 05:16:58;;;;;;;5.55;2.95;;;;;;;18.93;40.52;101222.41;5052543;28;20057;-46
2023/01/28 05:19:25;;;;;;;4.32;2.53;;;;;;;18.94;40.44;101232.16;5052488;28;20056;-50
2023/01/28 05:21:52;;;;;;;4.97;2.78;;;;;;;18.93;40.47;101234.00;5052699;28;20052;-50
2023/01/28 05:24:26;;;;;;;4.30;2.75;;;;;;;18.94;40.42;101232.16;5052473;28;20095;-49
2023/01/28 05:26:54;;;;;;;4.13;2.85;;;;;;;18.93;40.56;101233.16;5052226;28;20048;-48
2023/01/28 05:29:21;;;;;;;4.40;3.03;;;;;;;18.92;40.57;101234.97;5052353;28;20063;-50
2023/01/28 05:31:49;;;;;;;4.78;3.17;;;;;;;18.92;40.38;101234.97;5052051;28;20053;-47
2023/01/28 05:34:16;;;;;;;4.75;3.08;;;;;;;18.90;40.48;101239.59;5052179;28;20057;-49
2023/01/28 05:36:44;;;;;;;3.72;2.70;;;;;;;18.92;40.47;101242.16;5051880;28;20053;-47
2023/01/28 05:39:28;;;;;;;3.22;2.38;;;;;;;18.91;40.37;101245.81;5052399;28;20064;-46
2023/01/28 05:41:56;;;;;;;4.20;3.00;;;;;;;18.92;40.41;101242.16;5053468;28;20047;-50
2023/01/28 05:44:23;;;;;;;3.95;2.80;;;;;;;18.90;40.51;101244.09;5051857;28;20049;-48
2023/01/28 05:46:58;;;;;;;3.67;3.03;;;;;;;18.90;40.45;101238.75;5051860;28;20491;-47
2023/01/28 05:49:45;;;;;;;4.43;2.70;;;;;;;18.91;40.40;101245.81;5060356;28;20064;-49
2023/01/28 05:52:38;;;;;;;5.00;3.20;;;;;;;18.90;40.41;101247.63;5051290;28;20055;-50
2023/01/28 05:55:11;;;;;;;;;;;;;;;18.90;40.56;101249.47;5052481;28;20049;-49
2023/01/28 05:57:38;;;;;;;3.35;2.20;;;;;;;18.90;40.31;101250.31;5052022;28;20290;-49
2023/01/28 06:00:08;;;;;;;3.85;2.83;;;;;;;18.88;40.31;101249.59;5052371;28;20056;-50
2023/01/28 06:02:41;;;;;;;4.40;2.90;;;;;;;18.89;40.38;101255.81;5059804;28;20491;-51
2023/01/28 06:05:11;;;;;;;4.32;3.17;;;;;;;18.88;40.27;101257.66;5051883;28;20060;-54
2023/01/28 06:07:39;;;;;;;3.90;2.78;;;;;;;18.89;40.35;101258.50;5052510;28;20045;-51
2023/01/28 06:10:10;;;;;;;3.55;2.50;;;;;;;18.88;40.28;101254.09;5055940;28;20471;-47
2023/01/28 06:12:38;;;;;;;4.22;2.75;;;;;;;18.88;40.42;101262.13;5055220;28;20411;-48
2023/01/28 06:15:25;;;;;;;6.53;2.88;;;;;;;18.89;40.36;101266.56;5056611;28;20048;-49
2023/01/28 06:18:01;;;;;;;3.55;2.47;;;;;;;18.88;40.38;101268.38;5056546;28;20507;-49
2023/01/28 06:20:32;;;;;;;3.83;2.70;;;;;;;18.87;40.48;101269.34;5057092;28;20515;-48
2023/01/28 06:23:00;;;;;;;4.15;2.90;;;;;;;18.88;40.29;101273.75;5055515;28;20049;-49
2023/01/28 06:25:28;;;;;;;4.60;2.60;;;;;;;18.88;40.41;101270.19;5055884;28;20052;-48
2023/01/28 06:27:59;;;;;;;4.22;3.05;;;;;;;18.88;40.30;101278.22;5056194;28;20056;-48
2023/01/28 06:30:27;;;;;;;4.65;3.00;;;;;;;18.87;40.30;101277.38;5056955;28;20056;-47
2023/01/28 06:32:55;;;;;;;4.80;3.00;;;;;;;18.88;40.30;101291.66;5056778;28;20403;-48
2023/01/28 06:35:22;;;;;;;5.15;3.28;;;;;;;18.88;40.43;101297.00;5056887;28;20056;-50
2023/01/28 06:37:52;;;;;;;4.60;2.55;;;;;;;18.87;40.33;101288.13;5056909;28;20486;-47
2023/01/28 06:40:21;;;;;;;3.90;2.47;;;;;;;18.88;40.29;101292.53;5057142;28;20045;-48
2023/01/28 06:42:49;;;;;;;4.13;2.45;;;;;;;18.89;40.50;101304.13;5056801;28;20068;-46
2023/01/28 06:45:16;;;;;;;5.20;2.63;;;;;;;18.88;40.51;101302.38;5056779;28;20048;-48
2023/01/28 06:47:43;;;;;;;3.65;2.45;;;;;;;18.88;40.49;101305.94;5056461;28;20065;-46
2023/01/28 06:50:11;;;;;;;4.68;3.50;;;;;;;18.87;40.46;101314.09;5056802;28;20041;-48
2023/01/28 06:52:40;;;;;;;4.45;2.83;;;;;;;18.87;40.63;101314.09;5056576;28;20041;-49
2023/01/28 06:55:08;;;;;;;4.60;3.10;;;;;;;18.85;40.62;101306.16;5056835;28;20479;-48
2023/01/28 06:57:40;;;;;;;4.38;3.05;;;;;;;18.85;40.62;101316.03;5056484;28;20391;-47
2023/01/28 07:00:09;;;;;;;3.63;2.53;;;;;;;18.85;40.82;101319.59;5056796;28;20079;-48
2023/01/28 07:02:36;;;;;;;4.28;3.05;;;;;;;18.85;40.80;101318.72;5056553;28;20045;-49
2023/01/28 07:05:05;;;;;;;6.82;3.13;;;;;;;18.83;40.85;101318.81;5056259;28;20410;-48
2023/01/28 07:07:32;;;;;;;5.60;3.03;;;;;;;18.84;40.89;101319.69;5056074;28;20045;-48
2023/01/28 07:10:00;;;;;;;4.88;3.58;;;;;;;18.85;40.79;101333.00;5056228;28;20049;-46
2023/01/28 07:12:27;;;;;;;3.58;2.67;;;;;;;18.83;40.95;101334.94;5056688;28;20060;-46
2023/01/28 07:14:54;;;;;;;4.80;3.20;;;;;;;18.84;40.64;101335.78;5056209;28;20060;-48
2023/01/28 07:17:22;;;;;;;4.63;3.50;;;;;;;18.84;40.77;101349.19;5056476;28;20056;-48
2023/01/28 07:19:49;;;;;;;4.32;3.33;;;;;;;18.82;40.66;101346.63;5055629;28;20391;-46
2023/01/28 07:22:16;;;;;;;4.95;3.17;;;;;;;18.83;40.94;101352.84;5056001;28;20037;-48
2023/01/28 07:24:44;;;;;;;4.13;2.80;;;;;;;18.82;40.81;101348.47;5055100;28;20411;-46
2023/01/28 07:27:11;;;;;;;4.45;3.03;;;;;;;18.82;40.76;101357.38;5055844;28;20041;-47
2023/01/28 07:29:38;;;;;;;4.90;3.22;;;;;;;18.83;40.69;101360.91;5055817;28;20049;-48
2023/01/28 07:32:06;;;;;;;4.28;3.30;;;;;;;18.83;40.69;101364.44;5055741;28;20052;-49
2023/01/28 07:34:36;;;;;;;8.57;3.55;;;;;;;18.83;40.67;101361.75;5055907;28;20049;-49
2023/01/28 07:37:03;;;;;;;4.82;3.50;;;;;;;18.83;40.66;101369.78;5055627;28;20048;-48
2023/01/28 07:39:31;;;;;;;5.30;3.33;;;;;;;18.83;40.80;101366.25;5055588;28;20056;-46
2023/01/28 07:41:58;;;;;;;7.40;3.15;;;;;;;18.82;40.77;101367.25;5055202;28;20037;-46
2023/01/28 07:44:36;;;;;;;5.40;3.35;;;;;;;18.81;40.75;101371.75;5053963;28;20060;-46
2023/01/28 07:47:04;;;;;;;5.88;3.70;;;;;;;18.81;40.81;101382.47;5055508;28;20049;-48
2023/01/28 07:49:33;;;;;;;4.70;2.95;;;;;;;18.82;40.67;101383.34;5055643;28;20059;-52
2023/01/28 07:52:01;;;;;;;4.35;3.10;;;;;;;18.82;40.81;101376.13;5054946;28;20041;-52
2023/01/28 07:54:28;;;;;;;5.60;3.50;;;;;;;18.82;40.97;101381.50;5054997;28;20068;-50
2023/01/28 07:56:55;;;;;;;4.55;3.17;;;;;;;18.82;40.80;101386.03;5055207;28;20045;-48
2023/01/28 07:59:23;;;;;;;4.20;3.17;;;;;;;18.82;41.02;101394.06;5055602;28;20045;-48
2023/01/28 08:01:50;;;;;;;4.57;3.05;;;;;;;18.82;40.79;101391.38;5054965;28;20044;-48
2023/01/28 08:04:21;;;;;;;4.50;3.75;;;;;;;18.81;41.16;101390.53;5054784;28;20053;-49
2023/01/28 08:06:48;;;;;;;5.10;3.55;;;;;;;18.81;41.11;101403.09;5055063;28;20049;-52
2023/01/28 08:09:15;;;;;;;4.32;2.97;;;;;;;18.80;41.01;101396.00;5055071;28;20052;-47
2023/01/28 08:11:43;;;;;;;5.15;3.47;;;;;;;18.80;41.01;101404.91;5054850;28;20460;-49
2023/01/28 08:14:11;;;;;;;4.70;3.22;;;;;;;18.80;41.09;101406.72;5054925;28;20365;-45
2023/01/28 08:16:38;;;;;;;5.75;3.63;;;;;;;18.79;41.15;101411.22;5054954;28;20053;-46
2023/01/28 08:19:05;;;;;;;4.68;3.50;;;;;;;18.80;41.19;101406.72;5054088;28;20044;-48
2023/01/28 08:21:33;;;;;;;4.60;3.25;;;;;;;18.78;41.20;101410.38;5054828;28;20045;-50
2023/01/28 08:24:00;;;;;;;4.47;3.00;;;;;;;18.78;41.21;101410.38;5053208;28;20057;-50
2023/01/28 08:26:27;;;;;;;4.10;3.10;;;;;;;18.78;40.84;101420.25;5054148;28;20041;-50
2023/01/28 08:28:55;;;;;;;5.43;3.65;;;;;;;18.78;41.10;101420.25;5053035;28;20060;-47
2023/01/28 08:31:22;;;;;;;4.05;3.00;;;;;;;18.77;41.30;101419.41;5052542;28;20491;-48
2023/01/28 08:33:50;;;;;;;3.70;3.03;;;;;;;18.78;41.46;101423.78;5053293;28;20040;-49
2023/01/28 08:36:17;;;;;;;6.80;3.60;;;;;;;18.78;41.45;101421.09;5054224;28;20055;-46
2023/01/28 08:38:44;;;;;;;8.48;3.95;;;;;;;18.78;41.09;101420.25;5054830;28;20040;-50
2023/01/28 08:41:11;;;;;;;4.45;3.28;;;;;;;18.80;41.17;101428.19;5054516;28;20052;-50
2023/01/28 08:43:39;;;;;;;5.40;2.95;;;;;;;18.79;41.22;101424.66;5054225;28;20049;-49
2023/01/28 08:46:06;;;;;;;4.45;3.42;;;;;;;18.79;41.00;101424.66;5054350;28;20053;-49
2023/01/28 08:48:34;;;;;;;5.32;3.13;;;;;;;18.78;41.19;101421.09;5054632;28;20071;-48
2023/01/28 08:51:01;;;;;;;6.57;3.08;;;;;;;18.77;41.22;101424.78;5052862;28;20049;-50
2023/01/28 08:53:28;;;;;;;4.45;3.08;;;;;;;18.78;41.05;101425.63;5053226;28;20048;-47
2023/01/28 08:55:56;;;;;;;5.55;3.10;;;;;;;18.79;41.28;101438.06;5054158;28;20045;-47
2023/01/28 08:58:23;;;;;;;3.90;2.70;;;;;;;18.79;41.43;101430.00;5053328;28;20064;-46
2023/01/28 09:00:52;;;;;;;5.43;4.00;;;;;;;18.78;40.93;101445.25;5054197;28;20061;-49
2023/01/28 09:03:19;;;;;;;6.18;3.28;;;;;;;18.78;41.26;101434.53;5053828;28;20049;-50
2023/01/28 09:05:49;;;;;;;4.25;3.38;;;;;;;18.79;40.91;101438.06;5053994;28;20052;-48
2023/01/28 09:08:16;;;;;;;5.72;3.85;;;;;;;18.79;41.39;101443.44;5054037;28;20049;-49
2023/01/28 09:10:47;;;;;;;5.00;3.55;;;;;;;18.81;41.41;101446.88;5052538;28;20049;-47
2023/01/28 09:13:14;;;;;;;5.38;3.42;;;;;;;18.81;41.43;101448.69;5053749;28;20045;-46
2023/01/28 09:15:42;;;;;;;5.00;3.53;;;;;;;18.81;41.29;101456.75;5054004;28;20514;-50
2023/01/28 09:18:10;;;;;;;4.65;3.38;;;;;;;18.81;41.58;101454.06;5053818;28;20048;-49
2023/01/28 09:20:41;;;;;;;7.82;6.05;;;;;;;18.77;38.98;101450.75;5051587;28;20049;-50
2023/01/28 09:23:09;;;;;;;9.45;6.35;;;;;;;18.63;38.75;101453.53;5053515;28;20048;-50
2023/01/28 09:25:37;;;;;;;6.03;4.88;;;;;;;18.59;40.05;101452.91;5053729;28;20045;-49
2023/01/28 09:28:05;;;;;;;5.53;3.83;;;;;;;18.61;40.96;101455.50;5053857;28;20048;-46
2023/01/28 09:30:33;;;;;;;3.97;3.05;;;;;;;18.63;41.34;101461.56;5053591;28;20060;-49
2023/01/28 09:33:04;;;;;;;4.78;3.05;;;;;;;18.66;41.46;101459.53;5053446;28;20488;-49
2023/01/28 09:35:32;;;;;;;4.47;3.78;;;;;;;18.67;41.20;101466.59;5053589;28;20048;-49
2023/01/28 09:38:00;;;;;;;5.32;3.45;;;;;;;18.69;41.39;101455.78;5053540;28;20075;-49
2023/01/28 09:40:30;;;;;;;5.15;3.58;;;;;;;18.69;41.27;101467.38;5053593;28;20045;-49
2023/01/28 09:43:06;;;;;;;6.60;3.42;;;;;;;18.71;41.36;101460.06;5052890;28;20037;-49
2023/01/28 09:45:43;;;;;;;5.85;3.35;;;;;;;18.72;41.28;101463.66;5053238;28;20484;-49
2023/01/28 09:48:20;;;;;;;5.43;3.63;;;;;;;18.72;41.26;101459.13;5048912;28;20053;-47
2023/01/28 09:50:51;;;;;;;4.63;3.30;;;;;;;18.73;41.08;101466.19;5033659;28;20049;-49
2023/01/28 09:53:30;;;;;;;5.78;3.45;;;;;;;18.73;40.91;101463.53;5032239;28;20056;-50
2023/01/28 09:56:03;;;;;;;7.00;4.90;;;;;;;18.72;39.88;101466.31;5033582;28;20396;-51
2023/01/28 09:58:30;;;;;;;5.00;3.37;;;;;;;18.71;40.73;101475.31;5033309;28;20056;-47
2023/01/28 10:01:23;;;;;;;6.78;3.50;;;;;;;18.71;40.57;101470.81;5039716;28;20282;-47
2023/01/28 10:04:00;;;;;;;9.60;4.30;;;;;;;18.73;41.14;101473.41;5049819;28;20049;-49
2023/01/28 10:06:46;;;;;;;11.50;5.03;;;;;;;18.71;39.05;101470.81;5046155;28;20056;-46
2023/01/28 10:09:28;;;;;;;12.32;4.38;;;;;;;18.71;40.66;101470.81;5032944;28;20445;-50
2023/01/28 10:12:16;;;;;;;9.00;4.15;;;;;;;18.71;40.96;101465.44;5031925;28;20049;-48
2023/01/28 10:15:02;;;;;;;9.43;4.63;;;;;;;18.71;41.16;101470.81;5032758;28;20050;-47
2023/01/28 10:17:42;;;;;;;7.03;3.85;;;;;;;18.74;41.04;101470.59;5033068;28;20042;-47
2023/01/28 10:20:10;;;;;;;6.75;4.07;;;;;;;18.75;41.00;101469.63;5033362;28;20053;-52
2023/01/28 10:22:52;;;;;;;7.30;3.78;;;;;;;18.76;40.99;101465.97;5032977;28;20064;-49
2023/01/28 10:25:23;;;;;;;10.95;5.13;;;;;;;18.77;39.95;101470.38;5031609;28;20061;-51
2023/01/28 10:27:50;;;;;;;11.07;6.40;;;;;;;18.75;39.05;101458.03;5032866;28;20045;-51
2023/01/28 10:30:19;;;;;;;9.93;6.72;;;;;;;18.73;38.37;101463.53;5032624;28;20054;-51
2023/01/28 10:32:59;;;;;;;9.85;6.50;;;;;;;18.71;38.51;101461.91;5031433;28;20526;-51
2023/01/28 10:35:30;;;;;;;10.20;6.88;;;;;;;18.68;37.90;101460.28;5032851;28;20045;-50
2023/01/28 10:38:05;;;;;;;10.82;7.22;;;;;;;18.67;37.85;101461.25;5032911;28;20074;-50
2023/01/28 10:40:33;;;;;;;8.70;6.20;;;;;;;18.66;38.27;101458.69;5032602;28;20064;-51
2023/01/28 10:43:01;;;;;;;6.95;4.60;;;;;;;18.65;39.85;101452.47;5032228;28;20407;-51
2023/01/28 10:45:35;;;;;;;6.43;4.30;;;;;;;18.67;40.19;101455.88;5032847;28;20372;-49
2023/01/28 10:48:28;;;;;;;5.78;4.85;;;;;;;18.69;40.16;101458.47;5032520;28;20105;-48
2023/01/28 10:51:00;;;;;;;9.55;4.60;;;;;;;18.69;40.04;101462.00;5032869;28;20057;-50
2023/01/28 10:53:34;;;;;;;7.15;4.28;;;;;;;18.70;40.32;101449.47;5032585;28;20495;-53
2023/01/28 10:56:04;;;;;;;9.85;4.57;;;;;;;18.72;40.17;101450.22;5048345;28;20053;-51
2023/01/28 10:58:35;;;;;;;10.07;6.50;;;;;;;18.75;38.10;101452.66;5054964;28;20056;-49
2023/01/28 11:01:06;;;;;;;7.88;5.95;;;;;;;18.73;38.38;101455.47;5056104;28;20052;-51
2023/01/28 11:03:36;;;;;;;7.10;4.72;;;;;;;18.70;39.27;101461.06;5056225;28;20052;-52
2023/01/28 11:06:03;;;;;;;9.10;4.63;;;;;;;18.72;39.74;101463.66;5056349;28;20041;-50
2023/01/28 11:08:42;;;;;;;6.50;4.22;;;;;;;18.74;39.98;101459.00;5055980;28;20045;-49
2023/01/28 11:11:14;;;;;;;10.55;4.28;;;;;;;18.80;39.66;101450.53;5055942;28;20545;-50
2023/01/28 11:13:53;;;;;;;6.75;5.85;;;;;;;18.77;36.72;101454.28;5053147;28;20041;-48
2023/01/28 11:16:20;;;;;;;10.40;8.63;;;;;;;18.55;35.40;101448.72;5056126;28;20077;-46
2023/01/28 11:18:54;;;;;;;10.65;8.57;;;;;;;18.34;35.99;101452.97;5055823;28;20056;-52
2023/01/28 11:21:28;;;;;;;8.25;6.40;;;;;;;18.31;37.26;101453.19;5055984;28;20052;-49
2023/01/28 11:24:01;;;;;;;9.52;6.38;;;;;;;18.33;38.84;101446.75;5055833;28;20059;-49
2023/01/28 11:26:35;;;;;;;7.38;5.57;;;;;;;18.35;38.04;101441.28;5055528;28;20115;-53
2023/01/28 11:29:03;;;;;;;9.18;5.43;;;;;;;18.38;39.02;101439.22;5055565;28;20053;-53
2023/01/28 11:31:40;;;;;;;8.52;5.13;;;;;;;18.43;39.38;101444.25;5055790;28;20053;-51
2023/01/28 11:34:16;;;;;;;6.55;4.45;;;;;;;18.46;39.53;101446.72;5055146;28;20041;-52
2023/01/28 11:37:15;;;;;;;5.75;4.43;;;;;;;18.50;39.32;101441.03;5055090;28;20464;-52
2023/01/28 11:39:43;;;;;;;10.80;5.82;;;;;;;18.53;39.44;101443.50;5033982;28;20131;-51
2023/01/28 11:42:21;;;;;;;8.38;5.10;;;;;;;18.56;39.47;101445.09;5054816;28;20049;-53
2023/01/28 11:44:49;;;;;;;5.00;4.00;;;;;;;18.58;39.73;101436.94;5051522;28;20411;-49
2023/01/28 11:47:16;;;;;;;4.70;3.85;;;;;;;18.59;39.47;101433.28;5053752;28;20056;-51
2023/01/28 11:50:21;;;;;;;7.57;4.95;;;;;;;18.61;39.48;101434.88;5055524;28;20047;-49
2023/01/28 11:53:07;;;;;;;5.47;4.25;;;;;;;18.63;39.66;101427.56;5048264;28;20040;-48
2023/01/28 11:56:23;;;;;;;7.95;4.70;;;;;;;18.64;39.80;101415.91;5055163;28;20053;-48
2023/01/28 11:58:50;;;;;;;7.00;3.90;;;;;;;18.67;39.96;101420.16;5029448;28;20057;-48
2023/01/28 12:01:50;;;;;;;5.45;3.88;;;;;;;18.66;39.94;101411.25;5030290;28;20475;-47
2023/01/28 12:04:33;;;;;;;7.45;4.72;;;;;;;18.68;40.23;101409.34;5023180;28;20057;-50
2023/01/28 12:07:06;;;;;;;7.93;4.27;;;;;;;18.69;39.69;101400.31;5032666;28;20491;-49
2023/01/28 12:09:42;;;;;;;5.95;4.30;;;;;;;18.71;39.98;101405.59;5032729;28;20053;-51
2023/01/28 12:12:23;;;;;;;9.73;5.15;;;;;;;18.69;38.31;101399.47;5032173;28;20050;-51
2023/01/28 12:15:08;;;;;;;8.77;6.38;;;;;;;18.68;37.26;101405.81;5013591;28;20048;-51
2023/01/28 12:18:30;;;;;;;10.20;6.95;;;;;;;18.64;36.84;101397.13;5012507;28;20066;-52
2023/01/28 12:21:07;;;;;;;9.30;7.00;;;;;;;18.63;36.99;101400.75;4973429;28;20061;-49
2023/01/28 12:23:40;;;;;;;11.05;7.35;;;;;;;18.61;36.40;101394.66;5012328;28;20058;-51
2023/01/28 12:26:15;;;;;;;;;;;;;;;18.60;36.03;101390.28;5012987;28;20050;-46